Common Venture — SVBL4 — position and weather

sailwx.info

Track history (hours):
 
Tides and Currents Weather Stations Pressure Air Temp Water Temp Dewpoint Dewpoint Depression Visibility Wind Speed Wind Dir Waves Ship Positions

Common Venture

Last reported at 2014-Jun-26 04:18 UTC. Time now 2014-Jul-25 11:25 UTC.
Position N 30°27' W 121°55'.
Warning: this ship's position is 29 days out of date.

Length 190 m; draft 11.5 m.

Type: Cargo ship. MMSI: 241155000.

Date/timePositionNaut miles runAvg speedWind from/ knotsBaromVisibWave heightAir tempDewpointWater temp
2014-Jun-26 04:18N 30°27' W 121°55'810.6
2014-Jun-26 03:32N 30°32' W 122°03'  
2014-Jun-21 02:17N 48°24' W 125°09'7 9.1
2014-Jun-21 01:33N 48°29' W 125°03'9 8.8
2014-Jun-21 00:33N 48°31' W 124°50'9 9.5
2014-Jun-20 23:33N 48°29' W 124°36'1010.3
2014-Jun-20 22:33N 48°25' W 124°22'1110.7
2014-Jun-20 21:32N 48°21' W 124°07'1110.8
2014-Jun-20 20:33N 48°17' W 123°52'1210.2
2014-Jun-20 19:24N 48°16' W 123°34'7 8.7
2014-Jun-20 18:33N 48°21' W 123°26'8 8.2
2014-Jun-20 17:33N 48°24' W 123°15'1110.7
2014-Jun-20 16:33N 48°35' W 123°14'1010.2
2014-Jun-20 15:33N 48°44' W 123°08'8 7.9
2014-Jun-20 14:33N 48°52' W 123°06'1312.6
2014-Jun-20 13:33N 49°01' W 123°20'1110.9
2014-Jun-20 12:33N 49°12' W 123°22'1110.8
2014-Jun-20 11:33N 49°19' W 123°10'2 2.4
2014-Jun-20 10:31N 49°19' W 123°06'0 0.0
2014-Jun-20 09:32N 49°19' W 123°06'0 0.0
2014-Jun-20 08:32N 49°18' W 123°06'0 0.0
2014-Jun-20 07:31N 49°19' W 123°06'0 0.0
2014-Jun-20 06:31N 49°19' W 123°06'0 0.0
2014-Jun-20 05:31N 49°19' W 123°06'0 0.0
2014-Jun-20 04:31N 49°19' W 123°06'0 0.0
2014-Jun-20 03:31N 49°19' W 123°06'0 0.0
2014-Jun-20 02:31N 49°19' W 123°06'0 0.0
2014-Jun-20 01:31N 49°19' W 123°06'0 0.0
2014-Jun-20 00:31N 49°19' W 123°06'0 0.0
2014-Jun-19 23:31N 49°19' W 123°06'0 0.0
2014-Jun-19 22:28N 49°18' W 123°06'0 0.0
2014-Jun-19 21:31N 49°19' W 123°06'0 0.0
2014-Jun-19 20:31N 49°19' W 123°06'0 0.0
2014-Jun-19 19:31N 49°18' W 123°06'0 0.0
2014-Jun-19 18:31N 49°19' W 123°06'0 0.0
2014-Jun-19 17:31N 49°18' W 123°07'0 0.0
2014-Jun-19 16:31N 49°18' W 123°07'0 0.0
2014-Jun-19 15:31N 49°18' W 123°07'0 0.0
2014-Jun-19 14:31N 49°18' W 123°07'0 0.0
2014-Jun-19 13:31N 49°18' W 123°07'0 0.0
2014-Jun-19 12:31N 49°18' W 123°07'0 0.0
2014-Jun-19 11:31N 49°18' W 123°07'0 0.0
2014-Jun-19 10:31N 49°18' W 123°07'0 0.0
2014-Jun-19 09:31N 49°19' W 123°07'0 0.0
2014-Jun-19 08:31N 49°18' W 123°07'0 0.0
2014-Jun-19 07:31N 49°18' W 123°07'0 0.0
2014-Jun-19 06:31N 49°18' W 123°07'0 0.0
2014-Jun-19 05:31N 49°18' W 123°07'0 0.0
2014-Jun-19 04:31N 49°18' W 123°07'0 0.0
2014-Jun-19 03:31N 49°18' W 123°07'0 0.0
2014-Jun-19 02:31N 49°19' W 123°07'0 0.0
2014-Jun-19 01:31N 49°18' W 123°07'0 0.0
2014-Jun-19 00:31N 49°18' W 123°07'0 0.0
2014-Jun-18 23:31N 49°18' W 123°07'0 0.0
2014-Jun-18 22:28N 49°18' W 123°07'0 0.0
2014-Jun-18 21:31N 49°18' W 123°07'0 0.0
2014-Jun-18 20:31N 49°18' W 123°07'0 0.0
2014-Jun-18 19:31N 49°18' W 123°07'0 0.0
2014-Jun-18 18:31N 49°18' W 123°07'0 0.0
2014-Jun-18 17:31N 49°18' W 123°07'0 0.0
2014-Jun-18 16:31N 49°18' W 123°07'0 0.0
2014-Jun-18 15:31N 49°18' W 123°07'0 0.0
2014-Jun-18 14:31N 49°18' W 123°07'0 0.0
2014-Jun-18 13:31N 49°18' W 123°07'0 0.0
2014-Jun-18 12:31N 49°18' W 123°07'0 0.0
2014-Jun-18 11:31N 49°18' W 123°07'0 0.0
2014-Jun-18 10:31N 49°18' W 123°07'0 0.0
2014-Jun-18 09:31N 49°18' W 123°07'0 0.0
2014-Jun-18 08:31N 49°18' W 123°07'0 0.0
2014-Jun-18 07:31N 49°18' W 123°07'0 0.0
2014-Jun-18 06:31N 49°18' W 123°07'0 0.0
2014-Jun-18 05:31N 49°18' W 123°07'0 0.0
2014-Jun-18 04:31N 49°18' W 123°07'0 0.0
2014-Jun-18 03:31N 49°18' W 123°07'0 0.0
2014-Jun-18 02:31N 49°19' W 123°07'0 0.0
2014-Jun-18 01:31N 49°18' W 123°07'0 0.0
2014-Jun-18 00:31N 49°18' W 123°07'0 0.0
2014-Jun-17 23:31N 49°18' W 123°07'0 0.0
2014-Jun-17 22:31N 49°18' W 123°07'0 0.0
2014-Jun-17 21:31N 49°18' W 123°07'0 0.0
2014-Jun-17 20:31N 49°18' W 123°07'0 0.0
2014-Jun-17 19:31N 49°18' W 123°07'0 0.0
2014-Jun-17 18:31N 49°18' W 123°07'0 0.0
2014-Jun-17 17:31N 49°18' W 123°07'0 0.0
2014-Jun-17 16:31N 49°18' W 123°07'0 0.0
2014-Jun-17 15:31N 49°18' W 123°07'0 0.0
2014-Jun-17 14:31N 49°18' W 123°07'0 0.0
2014-Jun-17 13:31N 49°18' W 123°07'0 0.0
2014-Jun-17 12:31N 49°18' W 123°07'0 0.0
2014-Jun-17 11:31N 49°18' W 123°07'0 0.0
2014-Jun-17 10:31N 49°18' W 123°07'0 0.0
2014-Jun-17 09:31N 49°18' W 123°07'0 0.0
2014-Jun-17 08:31N 49°18' W 123°07'0 0.0
2014-Jun-17 07:31N 49°18' W 123°07'0 0.0
2014-Jun-17 06:31N 49°18' W 123°07'0 0.0
2014-Jun-17 05:31N 49°18' W 123°07'0 0.0
2014-Jun-17 04:31N 49°18' W 123°07'0 0.0
2014-Jun-17 03:31N 49°18' W 123°07'0 0.0
2014-Jun-17 02:31N 49°18' W 123°07'0 0.0
2014-Jun-17 01:31N 49°18' W 123°07'0 0.0
2014-Jun-17 00:31N 49°18' W 123°07'0 0.0
2014-Jun-16 23:31N 49°18' W 123°07'0 0.0
2014-Jun-16 22:31N 49°18' W 123°07'0 0.0
2014-Jun-16 21:31N 49°18' W 123°07'0 0.0
2014-Jun-16 20:31N 49°18' W 123°06'0 0.0
2014-Jun-16 19:31N 49°19' W 123°06'0 0.0
2014-Jun-16 18:31N 49°19' W 123°06'0 0.0
2014-Jun-16 17:31N 49°18' W 123°06'0 0.0
2014-Jun-16 16:31N 49°19' W 123°06'0 0.0
2014-Jun-16 15:31N 49°19' W 123°06'0 0.0
2014-Jun-16 14:31N 49°18' W 123°06'0 0.0
2014-Jun-16 13:31N 49°19' W 123°06'0 0.0
2014-Jun-16 12:31N 49°19' W 123°06'0 0.0
2014-Jun-16 11:31N 49°19' W 123°06'0 0.0
2014-Jun-16 10:31N 49°19' W 123°06'0 0.0
2014-Jun-16 09:31N 49°19' W 123°06'0 0.0
2014-Jun-16 08:31N 49°18' W 123°06'0 0.0
2014-Jun-16 07:31N 49°19' W 123°06'0 0.0
2014-Jun-16 06:31N 49°19' W 123°06'0 0.0
2014-Jun-16 05:31N 49°19' W 123°06'0 0.0
2014-Jun-16 04:31N 49°19' W 123°06'  
Track history (hours):
 
Tides and Currents Weather Stations Pressure Air Temp Water Temp Dewpoint Dewpoint Depression Visibility Wind Speed Wind Dir Waves Ship Positions

Common Venture

Last reported at 2014-Jun-26 04:18 UTC. Time now 2014-Jul-25 11:25 UTC.
Position N 30°27' W 121°55'.
Warning: this ship's position is 29 days out of date.

Length 190 m; draft 11.5 m.

Type: Cargo ship. MMSI: 241155000.

Date/timePositionNaut miles runAvg speedWind from/ knotsBaromVisibWave heightAir tempDewpointWater temp
2014-Jun-26 04:18N 30°27' W 121°55'810.6
2014-Jun-26 03:32N 30°32' W 122°03'  
2014-Jun-21 02:17N 48°24' W 125°09'7 9.1
2014-Jun-21 01:33N 48°29' W 125°03'9 8.8
2014-Jun-21 00:33N 48°31' W 124°50'9 9.5
2014-Jun-20 23:33N 48°29' W 124°36'1010.3
2014-Jun-20 22:33N 48°25' W 124°22'1110.7
2014-Jun-20 21:32N 48°21' W 124°07'1110.8
2014-Jun-20 20:33N 48°17' W 123°52'1210.2
2014-Jun-20 19:24N 48°16' W 123°34'7 8.7
2014-Jun-20 18:33N 48°21' W 123°26'8 8.2
2014-Jun-20 17:33N 48°24' W 123°15'1110.7
2014-Jun-20 16:33N 48°35' W 123°14'1010.2
2014-Jun-20 15:33N 48°44' W 123°08'8 7.9
2014-Jun-20 14:33N 48°52' W 123°06'1312.6
2014-Jun-20 13:33N 49°01' W 123°20'1110.9
2014-Jun-20 12:33N 49°12' W 123°22'1110.8
2014-Jun-20 11:33N 49°19' W 123°10'2 2.4
2014-Jun-20 10:31N 49°19' W 123°06'0 0.0
2014-Jun-20 09:32N 49°19' W 123°06'0 0.0
2014-Jun-20 08:32N 49°18' W 123°06'0 0.0
2014-Jun-20 07:31N 49°19' W 123°06'0 0.0
2014-Jun-20 06:31N 49°19' W 123°06'0 0.0
2014-Jun-20 05:31N 49°19' W 123°06'0 0.0
2014-Jun-20 04:31N 49°19' W 123°06'0 0.0
2014-Jun-20 03:31N 49°19' W 123°06'0 0.0
2014-Jun-20 02:31N 49°19' W 123°06'0 0.0
2014-Jun-20 01:31N 49°19' W 123°06'0 0.0
2014-Jun-20 00:31N 49°19' W 123°06'0 0.0
2014-Jun-19 23:31N 49°19' W 123°06'0 0.0
2014-Jun-19 22:28N 49°18' W 123°06'0 0.0
2014-Jun-19 21:31N 49°19' W 123°06'0 0.0
2014-Jun-19 20:31N 49°19' W 123°06'0 0.0
2014-Jun-19 19:31N 49°18' W 123°06'0 0.0
2014-Jun-19 18:31N 49°19' W 123°06'0 0.0
2014-Jun-19 17:31N 49°18' W 123°07'0 0.0
2014-Jun-19 16:31N 49°18' W 123°07'0 0.0
2014-Jun-19 15:31N 49°18' W 123°07'0 0.0
2014-Jun-19 14:31N 49°18' W 123°07'0 0.0
2014-Jun-19 13:31N 49°18' W 123°07'0 0.0
2014-Jun-19 12:31N 49°18' W 123°07'0 0.0
2014-Jun-19 11:31N 49°18' W 123°07'0 0.0
2014-Jun-19 10:31N 49°18' W 123°07'0 0.0
2014-Jun-19 09:31N 49°19' W 123°07'0 0.0
2014-Jun-19 08:31N 49°18' W 123°07'0 0.0
2014-Jun-19 07:31N 49°18' W 123°07'0 0.0
2014-Jun-19 06:31N 49°18' W 123°07'0 0.0
2014-Jun-19 05:31N 49°18' W 123°07'0 0.0
2014-Jun-19 04:31N 49°18' W 123°07'0 0.0
2014-Jun-19 03:31N 49°18' W 123°07'0 0.0
2014-Jun-19 02:31N 49°19' W 123°07'0 0.0
2014-Jun-19 01:31N 49°18' W 123°07'0 0.0
2014-Jun-19 00:31N 49°18' W 123°07'0 0.0
2014-Jun-18 23:31N 49°18' W 123°07'0 0.0
2014-Jun-18 22:28N 49°18' W 123°07'0 0.0
2014-Jun-18 21:31N 49°18' W 123°07'0 0.0
2014-Jun-18 20:31N 49°18' W 123°07'0 0.0
2014-Jun-18 19:31N 49°18' W 123°07'0 0.0
2014-Jun-18 18:31N 49°18' W 123°07'0 0.0
2014-Jun-18 17:31N 49°18' W 123°07'0 0.0
2014-Jun-18 16:31N 49°18' W 123°07'0 0.0
2014-Jun-18 15:31N 49°18' W 123°07'0 0.0
2014-Jun-18 14:31N 49°18' W 123°07'0 0.0
2014-Jun-18 13:31N 49°18' W 123°07'0 0.0
2014-Jun-18 12:31N 49°18' W 123°07'0 0.0
2014-Jun-18 11:31N 49°18' W 123°07'0 0.0
2014-Jun-18 10:31N 49°18' W 123°07'0 0.0
2014-Jun-18 09:31N 49°18' W 123°07'0 0.0
2014-Jun-18 08:31N 49°18' W 123°07'0 0.0
2014-Jun-18 07:31N 49°18' W 123°07'0 0.0
2014-Jun-18 06:31N 49°18' W 123°07'0 0.0
2014-Jun-18 05:31N 49°18' W 123°07'0 0.0
2014-Jun-18 04:31N 49°18' W 123°07'0 0.0
2014-Jun-18 03:31N 49°18' W 123°07'0 0.0
2014-Jun-18 02:31N 49°19' W 123°07'0 0.0
2014-Jun-18 01:31N 49°18' W 123°07'0 0.0
2014-Jun-18 00:31N 49°18' W 123°07'0 0.0
2014-Jun-17 23:31N 49°18' W 123°07'0 0.0
2014-Jun-17 22:31N 49°18' W 123°07'0 0.0
2014-Jun-17 21:31N 49°18' W 123°07'0 0.0
2014-Jun-17 20:31N 49°18' W 123°07'0 0.0
2014-Jun-17 19:31N 49°18' W 123°07'0 0.0
2014-Jun-17 18:31N 49°18' W 123°07'0 0.0
2014-Jun-17 17:31N 49°18' W 123°07'0 0.0
2014-Jun-17 16:31N 49°18' W 123°07'0 0.0
2014-Jun-17 15:31N 49°18' W 123°07'0 0.0
2014-Jun-17 14:31N 49°18' W 123°07'0 0.0
2014-Jun-17 13:31N 49°18' W 123°07'0 0.0
2014-Jun-17 12:31N 49°18' W 123°07'0 0.0
2014-Jun-17 11:31N 49°18' W 123°07'0 0.0
2014-Jun-17 10:31N 49°18' W 123°07'0 0.0
2014-Jun-17 09:31N 49°18' W 123°07'0 0.0
2014-Jun-17 08:31N 49°18' W 123°07'0 0.0
2014-Jun-17 07:31N 49°18' W 123°07'0 0.0
2014-Jun-17 06:31N 49°18' W 123°07'0 0.0
2014-Jun-17 05:31N 49°18' W 123°07'0 0.0
2014-Jun-17 04:31N 49°18' W 123°07'0 0.0
2014-Jun-17 03:31N 49°18' W 123°07'0 0.0
2014-Jun-17 02:31N 49°18' W 123°07'0 0.0
2014-Jun-17 01:31N 49°18' W 123°07'0 0.0
2014-Jun-17 00:31N 49°18' W 123°07'0 0.0
2014-Jun-16 23:31N 49°18' W 123°07'0 0.0
2014-Jun-16 22:31N 49°18' W 123°07'0 0.0
2014-Jun-16 21:31N 49°18' W 123°07'0 0.0
2014-Jun-16 20:31N 49°18' W 123°06'0 0.0
2014-Jun-16 19:31N 49°19' W 123°06'0 0.0
2014-Jun-16 18:31N 49°19' W 123°06'0 0.0
2014-Jun-16 17:31N 49°18' W 123°06'0 0.0
2014-Jun-16 16:31N 49°19' W 123°06'0 0.0
2014-Jun-16 15:31N 49°19' W 123°06'0 0.0
2014-Jun-16 14:31N 49°18' W 123°06'0 0.0
2014-Jun-16 13:31N 49°19' W 123°06'0 0.0
2014-Jun-16 12:31N 49°19' W 123°06'0 0.0
2014-Jun-16 11:31N 49°19' W 123°06'0 0.0
2014-Jun-16 10:31N 49°19' W 123°06'0 0.0
2014-Jun-16 09:31N 49°19' W 123°06'0 0.0
2014-Jun-16 08:31N 49°18' W 123°06'0 0.0
2014-Jun-16 07:31N 49°19' W 123°06'0 0.0
2014-Jun-16 06:31N 49°19' W 123°06'0 0.0
2014-Jun-16 05:31N 49°19' W 123°06'0 0.0
2014-Jun-16 04:31N 49°19' W 123°06'  

Dump ship's entire track history